sensor_id;sensor_type;location;lat;lon;timestamp;pressure;altitude;pressure_sealevel;temperature;humidity
58785;BME280;44557;51.862;19.378;2023-02-13T00:01:15;101065.65;;;5.15;97.82
58785;BME280;44557;51.862;19.378;2023-02-13T00:03:16;101061.59;;;5.11;98.16
58785;BME280;44557;51.862;19.378;2023-02-13T00:05:18;101063.67;;;5.09;98.21
58785;BME280;44557;51.862;19.378;2023-02-13T00:07:19;101057.48;;;5.05;98.31
58785;BME280;44557;51.862;19.378;2023-02-13T00:09:21;101057.85;;;5.01;98.86
58785;BME280;44557;51.862;19.378;2023-02-13T00:11:22;101057.77;;;5.09;98.65
58785;BME280;44557;51.862;19.378;2023-02-13T00:13:24;101053.95;;;5.12;98.20
58785;BME280;44557;51.862;19.378;2023-02-13T00:15:26;101053.95;;;5.12;98.45
58785;BME280;44557;51.862;19.378;2023-02-13T00:17:27;101052.05;;;5.15;98.31
58785;BME280;44557;51.862;19.378;2023-02-13T00:19:29;101053.17;;;5.06;98.68
58785;BME280;44557;51.862;19.378;2023-02-13T00:21:30;101046.63;;;5.10;98.35
58785;BME280;44557;51.862;19.378;2023-02-13T00:23:33;101042.38;;;5.14;98.40
58785;BME280;44557;51.862;19.378;2023-02-13T00:25:35;101041.16;;;5.06;98.44
58785;BME280;44557;51.862;19.378;2023-02-13T00:27:36;101041.95;;;4.98;98.82
58785;BME280;44557;51.862;19.378;2023-02-13T00:29:38;101044.73;;;5.02;98.89
58785;BME280;44557;51.862;19.378;2023-02-13T00:31:39;101041.77;;;5.10;98.45
58785;BME280;44557;51.862;19.378;2023-02-13T00:33:41;101045.33;;;5.08;98.59
58785;BME280;44557;51.862;19.378;2023-02-13T00:35:43;101042.74;;;5.14;98.50
58785;BME280;44557;51.862;19.378;2023-02-13T00:37:44;101043.63;;;5.10;98.40
58785;BME280;44557;51.862;19.378;2023-02-13T00:39:46;101036.50;;;5.04;98.53
58785;BME280;44557;51.862;19.378;2023-02-13T00:41:47;101035.79;;;5.00;99.09
58785;BME280;44557;51.862;19.378;2023-02-13T00:43:49;101031.41;;;4.99;99.13
58785;BME280;44557;51.862;19.378;2023-02-13T00:45:51;101032.24;;;5.05;98.92
58785;BME280;44557;51.862;19.378;2023-02-13T00:47:52;101032.08;;;5.04;99.02
58785;BME280;44557;51.862;19.378;2023-02-13T00:49:54;101031.70;;;5.05;98.86
58785;BME280;44557;51.862;19.378;2023-02-13T00:51:55;101030.23;;;5.07;98.76
58785;BME280;44557;51.862;19.378;2023-02-13T00:53:57;101027.73;;;5.09;98.76
58785;BME280;44557;51.862;19.378;2023-02-13T00:55:59;101026.30;;;5.12;98.64
58785;BME280;44557;51.862;19.378;2023-02-13T00:58:00;101028.66;;;5.13;98.30
58785;BME280;44557;51.862;19.378;2023-02-13T01:00:02;101027.98;;;5.08;98.72
58785;BME280;44557;51.862;19.378;2023-02-13T01:02:04;101022.75;;;5.04;98.89
58785;BME280;44557;51.862;19.378;2023-02-13T01:04:05;101027.48;;;5.03;99.38
58785;BME280;44557;51.862;19.378;2023-02-13T01:06:07;101027.83;;;5.05;98.75
58785;BME280;44557;51.862;19.378;2023-02-13T01:08:10;101026.90;;;5.07;98.78
58785;BME280;44557;51.862;19.378;2023-02-13T01:10:12;101025.98;;;5.10;98.80
58785;BME280;44557;51.862;19.378;2023-02-13T01:12:13;101023.91;;;5.14;98.55
58785;BME280;44557;51.862;19.378;2023-02-13T01:14:15;101019.15;;;5.11;98.65
58785;BME280;44557;51.862;19.378;2023-02-13T01:16:16;101023.09;;;5.14;98.37
58785;BME280;44557;51.862;19.378;2023-02-13T01:18:19;101018.01;;;5.08;98.68
58785;BME280;44557;51.862;19.378;2023-02-13T01:20:20;101013.19;;;5.04;98.74
58785;BME280;44557;51.862;19.378;2023-02-13T01:22:22;101011.38;;;5.01;99.17
58785;BME280;44557;51.862;19.378;2023-02-13T01:24:23;101008.70;;;5.01;99.24
58785;BME280;44557;51.862;19.378;2023-02-13T01:26:25;101007.23;;;5.06;99.01
58785;BME280;44557;51.862;19.378;2023-02-13T01:28:26;101008.23;;;5.11;98.62
58785;BME280;44557;51.862;19.378;2023-02-13T01:30:28;101006.76;;;5.11;98.69
58785;BME280;44557;51.862;19.378;2023-02-13T01:32:30;101000.84;;;5.04;98.87
58785;BME280;44557;51.862;19.378;2023-02-13T01:34:32;101000.99;;;4.99;99.42
58785;BME280;44557;51.862;19.378;2023-02-13T01:36:34;101004.11;;;5.01;99.25
58785;BME280;44557;51.862;19.378;2023-02-13T01:38:36;101004.05;;;5.00;99.56
58785;BME280;44557;51.862;19.378;2023-02-13T01:40:44;101002.02;;;4.95;99.66
58785;BME280;44557;51.862;19.378;2023-02-13T01:42:46;101003.22;;;4.97;99.77
58785;BME280;44557;51.862;19.378;2023-02-13T01:44:50;101002.97;;;5.03;99.36
58785;BME280;44557;51.862;19.378;2023-02-13T01:46:52;100999.20;;;5.07;99.33
58785;BME280;44557;51.862;19.378;2023-02-13T01:48:58;101002.92;;;5.08;98.99
58785;BME280;44557;51.862;19.378;2023-02-13T01:51:05;101004.58;;;5.17;98.66
58785;BME280;44557;51.862;19.378;2023-02-13T01:53:17;100999.65;;;5.08;98.56
58785;BME280;44557;51.862;19.378;2023-02-13T01:55:20;100996.89;;;5.01;99.02
58785;BME280;44557;51.862;19.378;2023-02-13T01:57:23;100999.80;;;5.04;98.98
58785;BME280;44557;51.862;19.378;2023-02-13T01:59:38;100996.84;;;4.99;98.91
58785;BME280;44557;51.862;19.378;2023-02-13T02:01:41;100999.13;;;5.01;99.08
58785;BME280;44557;51.862;19.378;2023-02-13T02:03:47;100994.42;;;4.94;99.05
58785;BME280;44557;51.862;19.378;2023-02-13T02:05:50;100998.15;;;4.98;99.31
58785;BME280;44557;51.862;19.378;2023-02-13T02:07:54;101000.92;;;4.96;99.29
58785;BME280;44557;51.862;19.378;2023-02-13T02:10:00;101005.52;;;4.96;99.41
58785;BME280;44557;51.862;19.378;2023-02-13T02:12:11;101002.52;;;4.96;99.20
58785;BME280;44557;51.862;19.378;2023-02-13T02:14:14;100999.95;;;5.00;98.94
58785;BME280;44557;51.862;19.378;2023-02-13T02:16:15;101006.05;;;4.92;99.25
58785;BME280;44557;51.862;19.378;2023-02-13T02:18:22;101003.17;;;4.96;99.33
58785;BME280;44557;51.862;19.378;2023-02-13T02:23:05;101003.33;;;4.97;99.12
58785;BME280;44557;51.862;19.378;2023-02-13T02:25:40;100999.45;;;4.97;99.21
58785;BME280;44557;51.862;19.378;2023-02-13T02:32:36;101000.71;;;4.98;98.76
58785;BME280;44557;51.862;19.378;2023-02-13T02:37:03;100998.46;;;4.93;99.17
58785;BME280;44557;51.862;19.378;2023-02-13T02:39:12;100998.29;;;4.94;99.12
58785;BME280;44557;51.862;19.378;2023-02-13T02:41:30;101002.67;;;4.97;98.82
58785;BME280;44557;51.862;19.378;2023-02-13T02:43:59;101005.89;;;4.96;98.85
58785;BME280;44557;51.862;19.378;2023-02-13T02:46:21;101001.63;;;4.93;98.76
58785;BME280;44557;51.862;19.378;2023-02-13T02:48:31;100999.98;;;4.87;99.16
58785;BME280;44557;51.862;19.378;2023-02-13T02:51:01;101005.27;;;4.87;99.52
58785;BME280;44557;51.862;19.378;2023-02-13T02:53:16;101007.14;;;4.88;99.33
58785;BME280;44557;51.862;19.378;2023-02-13T02:57:57;101009.02;;;4.82;99.72
58785;BME280;44557;51.862;19.378;2023-02-13T03:00:23;101010.85;;;4.92;99.10
58785;BME280;44557;51.862;19.378;2023-02-13T03:02:44;101015.61;;;4.94;98.91
58785;BME280;44557;51.862;19.378;2023-02-13T03:05:16;101018.08;;;4.98;98.47
58785;BME280;44557;51.862;19.378;2023-02-13T03:07:39;101019.89;;;5.04;98.33
58785;BME280;44557;51.862;19.378;2023-02-13T03:09:51;101022.71;;;4.96;98.65
58785;BME280;44557;51.862;19.378;2023-02-13T03:12:16;101027.18;;;4.92;98.65
58785;BME280;44557;51.862;19.378;2023-02-13T03:14:38;101021.88;;;4.90;98.84
58785;BME280;44557;51.862;19.378;2023-02-13T03:16:40;101027.23;;;4.96;98.79
58785;BME280;44557;51.862;19.378;2023-02-13T03:19:00;101021.67;;;4.95;98.19
58785;BME280;44557;51.862;19.378;2023-02-13T03:22:01;101024.26;;;4.98;98.33
58785;BME280;44557;51.862;19.378;2023-02-13T03:26:56;101027.40;;;4.91;98.28
58785;BME280;44557;51.862;19.378;2023-02-13T03:29:55;101026.61;;;4.99;98.27
58785;BME280;44557;51.862;19.378;2023-02-13T03:34:12;101028.27;;;4.91;98.57
58785;BME280;44557;51.862;19.378;2023-02-13T03:36:16;101022.73;;;5.01;98.20
58785;BME280;44557;51.862;19.378;2023-02-13T03:40:51;101020.67;;;5.06;97.59
58785;BME280;44557;51.862;19.378;2023-02-13T03:43:15;101020.70;;;4.97;97.89
58785;BME280;44557;51.862;19.378;2023-02-13T03:45:28;101025.50;;;4.94;98.04
58785;BME280;44557;51.862;19.378;2023-02-13T03:47:51;101028.95;;;4.92;98.41
58785;BME280;44557;51.862;19.378;2023-02-13T03:49:54;101025.25;;;4.87;98.40
58785;BME280;44557;51.862;19.378;2023-02-13T03:52:15;101028.36;;;4.85;98.79
58785;BME280;44557;51.862;19.378;2023-02-13T03:54:25;101025.80;;;4.86;98.87
58785;BME280;44557;51.862;19.378;2023-02-13T03:56:49;101029.52;;;4.90;98.62
58785;BME280;44557;51.862;19.378;2023-02-13T03:59:17;101020.86;;;4.95;98.27
58785;BME280;44557;51.862;19.378;2023-02-13T04:01:25;101029.92;;;4.96;98.23
58785;BME280;44557;51.862;19.378;2023-02-13T04:03:34;101025.13;;;4.98;98.07
58785;BME280;44557;51.862;19.378;2023-02-13T04:05:44;101021.39;;;4.94;98.34
58785;BME280;44557;51.862;19.378;2023-02-13T04:07:48;101023.70;;;4.92;98.30
58785;BME280;44557;51.862;19.378;2023-02-13T04:09:50;101021.46;;;4.94;98.22
58785;BME280;44557;51.862;19.378;2023-02-13T04:11:56;101015.66;;;4.93;98.36
58785;BME280;44557;51.862;19.378;2023-02-13T04:14:07;101014.25;;;4.95;98.09
58785;BME280;44557;51.862;19.378;2023-02-13T04:16:17;101016.47;;;4.89;98.19
58785;BME280;44557;51.862;19.378;2023-02-13T04:18:29;101021.29;;;4.92;98.41
58785;BME280;44557;51.862;19.378;2023-02-13T04:20:32;101021.94;;;4.88;98.43
58785;BME280;44557;51.862;19.378;2023-02-13T04:22:34;101017.54;;;4.80;98.70
58785;BME280;44557;51.862;19.378;2023-02-13T04:24:35;101017.70;;;4.81;98.53
58785;BME280;44557;51.862;19.378;2023-02-13T04:26:39;101025.38;;;4.77;98.53
58785;BME280;44557;51.862;19.378;2023-02-13T04:28:42;101018.45;;;4.76;98.56
58785;BME280;44557;51.862;19.378;2023-02-13T04:30:43;101017.90;;;4.75;98.74
58785;BME280;44557;51.862;19.378;2023-02-13T04:32:45;101021.25;;;4.77;98.52
58785;BME280;44557;51.862;19.378;2023-02-13T04:34:46;101021.89;;;4.75;98.44
58785;BME280;44557;51.862;19.378;2023-02-13T04:36:48;101021.42;;;4.72;98.79
58785;BME280;44557;51.862;19.378;2023-02-13T04:38:50;101022.16;;;4.79;98.40
58785;BME280;44557;51.862;19.378;2023-02-13T04:40:52;101022.23;;;4.80;98.41
58785;BME280;44557;51.862;19.378;2023-02-13T04:42:53;101022.05;;;4.74;98.50
58785;BME280;44557;51.862;19.378;2023-02-13T04:44:55;101022.22;;;4.77;98.48
58785;BME280;44557;51.862;19.378;2023-02-13T04:46:56;101022.36;;;4.72;98.70
58785;BME280;44557;51.862;19.378;2023-02-13T04:48:58;101027.38;;;4.69;98.49
58785;BME280;44557;51.862;19.378;2023-02-13T04:50:59;101026.80;;;4.75;98.62
58785;BME280;44557;51.862;19.378;2023-02-13T04:53:01;101032.00;;;4.82;98.12
58785;BME280;44557;51.862;19.378;2023-02-13T04:55:02;101031.05;;;4.76;98.33
58785;BME280;44557;51.862;19.378;2023-02-13T04:57:04;101034.31;;;4.70;98.43
58785;BME280;44557;51.862;19.378;2023-02-13T04:59:06;101039.73;;;4.75;98.37
58785;BME280;44557;51.862;19.378;2023-02-13T05:01:12;101037.38;;;4.73;98.40
58785;BME280;44557;51.862;19.378;2023-02-13T05:03:13;101040.55;;;4.74;98.34
58785;BME280;44557;51.862;19.378;2023-02-13T05:05:15;101031.86;;;4.72;98.37
58785;BME280;44557;51.862;19.378;2023-02-13T05:07:17;101028.64;;;4.76;98.26
58785;BME280;44557;51.862;19.378;2023-02-13T05:09:18;101032.83;;;4.82;97.77
58785;BME280;44557;51.862;19.378;2023-02-13T05:11:20;101032.72;;;4.69;98.21
58785;BME280;44557;51.862;19.378;2023-02-13T05:13:21;101035.14;;;4.72;98.17
58785;BME280;44557;51.862;19.378;2023-02-13T05:15:23;101033.10;;;4.69;98.32
58785;BME280;44557;51.862;19.378;2023-02-13T05:17:24;101034.25;;;4.67;98.45
58785;BME280;44557;51.862;19.378;2023-02-13T05:19:26;101036.70;;;4.66;98.60
58785;BME280;44557;51.862;19.378;2023-02-13T05:21:27;101037.96;;;4.66;98.66
58785;BME280;44557;51.862;19.378;2023-02-13T05:23:47;101036.48;;;4.68;98.37
58785;BME280;44557;51.862;19.378;2023-02-13T05:25:49;101033.48;;;4.66;98.30
58785;BME280;44557;51.862;19.378;2023-02-13T05:27:50;101036.86;;;4.69;98.27
58785;BME280;44557;51.862;19.378;2023-02-13T05:29:52;101037.23;;;4.65;98.23
58785;BME280;44557;51.862;19.378;2023-02-13T05:31:57;101038.45;;;4.68;98.35
58785;BME280;44557;51.862;19.378;2023-02-13T05:34:00;101038.39;;;4.68;98.19
58785;BME280;44557;51.862;19.378;2023-02-13T05:36:02;101034.44;;;4.75;97.96
58785;BME280;44557;51.862;19.378;2023-02-13T05:38:03;101029.68;;;4.72;97.82
58785;BME280;44557;51.862;19.378;2023-02-13T05:40:05;101029.98;;;4.78;97.59
58785;BME280;44557;51.862;19.378;2023-02-13T05:42:07;101034.23;;;4.76;97.52
58785;BME280;44557;51.862;19.378;2023-02-13T05:44:11;101031.82;;;4.75;97.62
58785;BME280;44557;51.862;19.378;2023-02-13T05:46:13;101029.40;;;4.72;97.76
58785;BME280;44557;51.862;19.378;2023-02-13T05:48:14;101031.27;;;4.73;97.48
58785;BME280;44557;51.862;19.378;2023-02-13T05:50:16;101031.27;;;4.71;97.55
58785;BME280;44557;51.862;19.378;2023-02-13T05:52:17;101029.79;;;4.72;97.44
58785;BME280;44557;51.862;19.378;2023-02-13T05:54:20;101037.23;;;4.79;97.61
58785;BME280;44557;51.862;19.378;2023-02-13T05:56:21;101037.81;;;4.83;97.01
58785;BME280;44557;51.862;19.378;2023-02-13T05:58:23;101042.83;;;4.83;97.07
58785;BME280;44557;51.862;19.378;2023-02-13T06:00:24;101043.16;;;4.85;96.86
58785;BME280;44557;51.862;19.378;2023-02-13T06:02:26;101040.27;;;4.86;96.57
58785;BME280;44557;51.862;19.378;2023-02-13T06:04:27;101037.52;;;4.78;96.88
58785;BME280;44557;51.862;19.378;2023-02-13T06:06:29;101037.61;;;4.77;96.94
58785;BME280;44557;51.862;19.378;2023-02-13T06:08:31;101037.95;;;4.77;97.14
58785;BME280;44557;51.862;19.378;2023-02-13T06:10:32;101040.55;;;4.74;97.09
58785;BME280;44557;51.862;19.378;2023-02-13T06:12:34;101040.17;;;4.76;97.19
58785;BME280;44557;51.862;19.378;2023-02-13T06:14:35;101044.51;;;4.80;96.88
58785;BME280;44557;51.862;19.378;2023-02-13T06:16:37;101042.83;;;4.83;96.67
58785;BME280;44557;51.862;19.378;2023-02-13T06:18:39;101040.99;;;4.90;96.45
58785;BME280;44557;51.862;19.378;2023-02-13T06:20:40;101049.34;;;4.88;96.68
58785;BME280;44557;51.862;19.378;2023-02-13T06:22:42;101046.30;;;4.91;96.59
58785;BME280;44557;51.862;19.378;2023-02-13T06:24:43;101043.58;;;4.95;96.51
58785;BME280;44557;51.862;19.378;2023-02-13T06:26:45;101045.63;;;4.88;96.86
58785;BME280;44557;51.862;19.378;2023-02-13T06:28:46;101046.63;;;4.79;97.29
58785;BME280;44557;51.862;19.378;2023-02-13T06:30:48;101044.60;;;4.77;97.81
58785;BME280;44557;51.862;19.378;2023-02-13T06:32:49;101047.25;;;4.82;97.87
58785;BME280;44557;51.862;19.378;2023-02-13T06:34:51;101052.16;;;4.83;97.87
58785;BME280;44557;51.862;19.378;2023-02-13T06:36:52;101056.86;;;4.85;97.86
58785;BME280;44557;51.862;19.378;2023-02-13T06:38:55;101051.38;;;4.90;97.82
58785;BME280;44557;51.862;19.378;2023-02-13T06:41:00;101059.19;;;4.93;97.70
58785;BME280;44557;51.862;19.378;2023-02-13T06:43:02;101054.04;;;4.88;97.95
58785;BME280;44557;51.862;19.378;2023-02-13T06:45:04;101048.27;;;4.90;98.01
58785;BME280;44557;51.862;19.378;2023-02-13T06:47:06;101053.73;;;4.92;97.48
58785;BME280;44557;51.862;19.378;2023-02-13T06:49:08;101051.30;;;4.86;97.94
58785;BME280;44557;51.862;19.378;2023-02-13T06:51:10;101051.38;;;4.90;98.01
58785;BME280;44557;51.862;19.378;2023-02-13T06:53:11;101052.62;;;4.87;98.16
58785;BME280;44557;51.862;19.378;2023-02-13T06:55:13;101052.09;;;4.95;98.13
58785;BME280;44557;51.862;19.378;2023-02-13T06:57:15;101051.09;;;4.92;98.19
58785;BME280;44557;51.862;19.378;2023-02-13T06:59:16;101047.44;;;4.92;98.16
58785;BME280;44557;51.862;19.378;2023-02-13T07:01:18;101046.91;;;4.98;98.24
58785;BME280;44557;51.862;19.378;2023-02-13T07:03:19;101044.02;;;4.97;98.00
58785;BME280;44557;51.862;19.378;2023-02-13T07:05:21;101044.77;;;4.94;98.13
58785;BME280;44557;51.862;19.378;2023-02-13T07:07:23;101050.61;;;4.92;98.21
58785;BME280;44557;51.862;19.378;2023-02-13T07:09:24;101052.92;;;4.97;98.64
58785;BME280;44557;51.862;19.378;2023-02-13T07:11:26;101049.86;;;4.97;98.74
58785;BME280;44557;51.862;19.378;2023-02-13T07:13:27;101051.09;;;4.90;98.83
58785;BME280;44557;51.862;19.378;2023-02-13T07:15:29;101050.73;;;4.95;99.13
58785;BME280;44557;51.862;19.378;2023-02-13T07:17:31;101051.69;;;5.03;98.94
58785;BME280;44557;51.862;19.378;2023-02-13T07:19:34;101055.55;;;5.00;99.07
58785;BME280;44557;51.862;19.378;2023-02-13T07:21:35;101053.00;;;5.03;99.22
58785;BME280;44557;51.862;19.378;2023-02-13T07:23:38;101049.15;;;4.94;99.55
58785;BME280;44557;51.862;19.378;2023-02-13T07:25:39;101036.82;;;4.98;99.56
58785;BME280;44557;51.862;19.378;2023-02-13T07:27:41;101033.71;;;5.00;99.06
58785;BME280;44557;51.862;19.378;2023-02-13T07:29:42;101037.64;;;4.97;99.39
58785;BME280;44557;51.862;19.378;2023-02-13T07:31:44;101040.53;;;4.99;99.53
58785;BME280;44557;51.862;19.378;2023-02-13T07:33:49;101037.46;;;4.96;99.76
58785;BME280;44557;51.862;19.378;2023-02-13T07:35:51;101046.59;;;4.98;99.88
58785;BME280;44557;51.862;19.378;2023-02-13T07:37:54;101045.02;;;4.99;99.98
58785;BME280;44557;51.862;19.378;2023-02-13T07:39:56;101038.15;;;5.04;100.00
58785;BME280;44557;51.862;19.378;2023-02-13T07:41:57;101039.38;;;5.12;99.99
58785;BME280;44557;51.862;19.378;2023-02-13T07:43:59;101043.30;;;5.10;99.91
58785;BME280;44557;51.862;19.378;2023-02-13T07:46:02;101041.65;;;5.06;99.97
58785;BME280;44557;51.862;19.378;2023-02-13T07:48:04;101046.35;;;5.08;100.00
58785;BME280;44557;51.862;19.378;2023-02-13T07:50:06;101044.33;;;5.10;100.00
58785;BME280;44557;51.862;19.378;2023-02-13T07:52:09;101051.60;;;5.11;99.99
58785;BME280;44557;51.862;19.378;2023-02-13T07:54:10;101048.06;;;5.14;99.99
58785;BME280;44557;51.862;19.378;2023-02-13T07:56:12;101045.81;;;5.11;100.00
58785;BME280;44557;51.862;19.378;2023-02-13T07:58:13;101052.54;;;5.18;100.00
58785;BME280;44557;51.862;19.378;2023-02-13T08:00:15;101058.55;;;5.14;99.98
58785;BME280;44557;51.862;19.378;2023-02-13T08:02:17;101056.57;;;5.08;100.00
58785;BME280;44557;51.862;19.378;2023-02-13T08:04:19;101053.02;;;5.09;100.00
58785;BME280;44557;51.862;19.378;2023-02-13T08:06:20;101057.10;;;5.06;100.00
58785;BME280;44557;51.862;19.378;2023-02-13T08:08:22;101057.17;;;5.11;100.00
58785;BME280;44557;51.862;19.378;2023-02-13T08:10:24;101049.10;;;5.16;100.00
58785;BME280;44557;51.862;19.378;2023-02-13T08:12:44;101048.92;;;5.09;100.00
58785;BME280;44557;51.862;19.378;2023-02-13T08:14:46;101046.45;;;5.08;100.00
58785;BME280;44557;51.862;19.378;2023-02-13T08:16:48;101041.40;;;5.17;100.00
58785;BME280;44557;51.862;19.378;2023-02-13T08:18:49;101045.06;;;5.20;100.00
58785;BME280;44557;51.862;19.378;2023-02-13T08:20:51;101045.99;;;5.22;100.00
58785;BME280;44557;51.862;19.378;2023-02-13T08:22:53;101043.95;;;5.14;100.00
58785;BME280;44557;51.862;19.378;2023-02-13T08:24:54;101045.48;;;5.13;100.00
58785;BME280;44557;51.862;19.378;2023-02-13T08:26:56;101044.19;;;5.14;100.00
58785;BME280;44557;51.862;19.378;2023-02-13T08:28:58;101039.36;;;5.14;100.00
58785;BME280;44557;51.862;19.378;2023-02-13T08:30:59;101034.73;;;5.15;100.00
58785;BME280;44557;51.862;19.378;2023-02-13T08:33:01;101034.78;;;5.14;100.00
58785;BME280;44557;51.862;19.378;2023-02-13T08:35:02;101035.06;;;5.18;100.00
58785;BME280;44557;51.862;19.378;2023-02-13T08:37:04;101037.64;;;5.20;100.00
58785;BME280;44557;51.862;19.378;2023-02-13T08:39:08;101037.25;;;5.22;100.00
58785;BME280;44557;51.862;19.378;2023-02-13T08:41:09;101039.48;;;5.20;100.00
58785;BME280;44557;51.862;19.378;2023-02-13T08:43:11;101042.07;;;5.22;100.00
58785;BME280;44557;51.862;19.378;2023-02-13T08:45:12;101041.45;;;5.22;100.00
58785;BME280;44557;51.862;19.378;2023-02-13T08:47:14;101042.55;;;5.26;100.00
58785;BME280;44557;51.862;19.378;2023-02-13T08:49:15;101041.84;;;5.24;100.00
58785;BME280;44557;51.862;19.378;2023-02-13T08:51:17;101039.23;;;5.31;100.00
58785;BME280;44557;51.862;19.378;2023-02-13T08:53:19;101033.98;;;5.31;100.00
58785;BME280;44557;51.862;19.378;2023-02-13T08:55:20;101039.52;;;5.32;100.00
58785;BME280;44557;51.862;19.378;2023-02-13T08:57:22;101044.21;;;5.34;100.00
58785;BME280;44557;51.862;19.378;2023-02-13T08:59:23;101039.33;;;5.27;100.00
58785;BME280;44557;51.862;19.378;2023-02-13T09:01:25;101040.88;;;5.31;100.00
58785;BME280;44557;51.862;19.378;2023-02-13T09:03:26;101036.52;;;5.35;100.00
58785;BME280;44557;51.862;19.378;2023-02-13T09:05:29;101039.58;;;5.40;99.67
58785;BME280;44557;51.862;19.378;2023-02-13T09:07:31;101035.42;;;5.41;99.56
58785;BME280;44557;51.862;19.378;2023-02-13T09:09:33;101031.70;;;5.39;99.41
58785;BME280;44557;51.862;19.378;2023-02-13T09:11:35;101032.35;;;5.31;99.60
58785;BME280;44557;51.862;19.378;2023-02-13T09:13:36;101032.40;;;5.29;99.95
58785;BME280;44557;51.862;19.378;2023-02-13T09:15:40;101032.02;;;5.33;99.63
58785;BME280;44557;51.862;19.378;2023-02-13T09:17:42;101035.08;;;5.28;99.70
58785;BME280;44557;51.862;19.378;2023-02-13T09:19:43;101034.36;;;5.26;99.83
58785;BME280;44557;51.862;19.378;2023-02-13T09:21:46;101032.77;;;5.23;99.69
58785;BME280;44557;51.862;19.378;2023-02-13T09:23:48;101038.08;;;5.28;99.78
58785;BME280;44557;51.862;19.378;2023-02-13T09:25:51;101033.35;;;5.38;99.93
58785;BME280;44557;51.862;19.378;2023-02-13T09:27:53;101032.70;;;5.43;99.83
58785;BME280;44557;51.862;19.378;2023-02-13T09:29:55;101031.95;;;5.56;99.25
58785;BME280;44557;51.862;19.378;2023-02-13T09:31:56;101027.24;;;5.73;98.85
58785;BME280;44557;51.862;19.378;2023-02-13T09:33:58;101022.05;;;6.05;96.99
58785;BME280;44557;51.862;19.378;2023-02-13T09:36:10;101025.30;;;6.56;94.82
58785;BME280;44557;51.862;19.378;2023-02-13T09:38:14;101022.48;;;7.00;93.45
58785;BME280;44557;51.862;19.378;2023-02-13T09:40:28;101026.55;;;7.70;90.21
58785;BME280;44557;51.862;19.378;2023-02-13T09:42:33;101022.54;;;8.07;87.93
58785;BME280;44557;51.862;19.378;2023-02-13T09:44:40;101023.58;;;7.72;88.19
58785;BME280;44557;51.862;19.378;2023-02-13T09:46:43;101019.94;;;7.30;89.17
58785;BME280;44557;51.862;19.378;2023-02-13T09:48:49;101015.64;;;7.01;89.97
58785;BME280;44557;51.862;19.378;2023-02-13T09:50:51;101018.12;;;6.85;91.15
58785;BME280;44557;51.862;19.378;2023-02-13T09:52:54;101018.76;;;6.67;91.25
58785;BME280;44557;51.862;19.378;2023-02-13T09:54:57;101008.29;;;6.54;91.28
58785;BME280;44557;51.862;19.378;2023-02-13T09:57:09;101011.51;;;6.43;90.94
58785;BME280;44557;51.862;19.378;2023-02-13T10:01:31;101022.05;;;6.47;92.17
58785;BME280;44557;51.862;19.378;2023-02-13T10:03:46;101017.89;;;6.48;92.36
58785;BME280;44557;51.862;19.378;2023-02-13T10:05:57;101021.34;;;6.47;92.28
58785;BME280;44557;51.862;19.378;2023-02-13T10:15:21;101027.48;;;6.46;92.23
58785;BME280;44557;51.862;19.378;2023-02-13T10:17:36;101015.21;;;6.46;92.03
58785;BME280;44557;51.862;19.378;2023-02-13T10:19:40;101014.83;;;6.49;91.79
58785;BME280;44557;51.862;19.378;2023-02-13T10:21:50;101011.00;;;6.47;91.91
58785;BME280;44557;51.862;19.378;2023-02-13T10:23:57;101003.60;;;6.48;92.53
58785;BME280;44557;51.862;19.378;2023-02-13T10:26:02;101008.73;;;6.49;91.96
58785;BME280;44557;51.862;19.378;2023-02-13T10:28:11;101004.94;;;6.54;91.85
58785;BME280;44557;51.862;19.378;2023-02-13T10:30:18;101000.42;;;6.49;91.69
58785;BME280;44557;51.862;19.378;2023-02-13T10:32:26;101005.89;;;6.49;92.19
58785;BME280;44557;51.862;19.378;2023-02-13T10:34:35;101000.43;;;6.49;91.65
58785;BME280;44557;51.862;19.378;2023-02-13T10:36:42;100993.30;;;6.48;90.92
58785;BME280;44557;51.862;19.378;2023-02-13T10:38:55;101001.98;;;6.40;91.48
58785;BME280;44557;51.862;19.378;2023-02-13T10:43:08;100999.13;;;6.28;91.66
58785;BME280;44557;51.862;19.378;2023-02-13T10:52:54;101001.27;;;6.28;91.97
58785;BME280;44557;51.862;19.378;2023-02-13T10:55:07;101005.75;;;6.29;91.88
58785;BME280;44557;51.862;19.378;2023-02-13T10:58:04;101001.86;;;6.32;91.62
58785;BME280;44557;51.862;19.378;2023-02-13T11:00:13;101007.95;;;6.28;92.03
58785;BME280;44557;51.862;19.378;2023-02-13T11:02:27;101006.67;;;6.28;91.70
58785;BME280;44557;51.862;19.378;2023-02-13T11:04:29;101005.34;;;6.16;91.42
58785;BME280;44557;51.862;19.378;2023-02-13T11:06:33;101008.67;;;6.13;91.63
58785;BME280;44557;51.862;19.378;2023-02-13T11:08:41;101001.94;;;6.21;91.01
58785;BME280;44557;51.862;19.378;2023-02-13T11:10:46;101004.15;;;6.11;91.00
58785;BME280;44557;51.862;19.378;2023-02-13T11:12:48;101004.73;;;6.16;91.36
58785;BME280;44557;51.862;19.378;2023-02-13T11:14:55;101005.34;;;6.16;91.51
58785;BME280;44557;51.862;19.378;2023-02-13T11:17:03;101004.20;;;6.04;91.94
58785;BME280;44557;51.862;19.378;2023-02-13T11:19:18;101002.91;;;6.00;91.83
58785;BME280;44557;51.862;19.378;2023-02-13T11:21:22;100999.40;;;5.99;92.28
58785;BME280;44557;51.862;19.378;2023-02-13T11:23:42;100997.98;;;5.95;92.37
58785;BME280;44557;51.862;19.378;2023-02-13T11:28:09;100995.33;;;5.89;92.37
58785;BME280;44557;51.862;19.378;2023-02-13T11:30:37;100991.82;;;5.90;92.16
58785;BME280;44557;51.862;19.378;2023-02-13T11:32:39;100989.41;;;5.89;92.22
58785;BME280;44557;51.862;19.378;2023-02-13T11:34:40;100985.95;;;5.95;92.26